Time;durP1;ratioP1;P1;durP2;ratioP2;P2;SDS_P1;SDS_P2;PMS_P1;PMS_P2;Temp;Humidity;BMP_temperature;BMP_pressure;BME280_temperature;BME280_humidity;BME280_pressure;Samples;Min_cycle;Max_cycle;Signal;HPM_P1;HPM_P2
2021/07/07 00:02:49;;;;;;;;;;;;;;;-148.22;100.00;58358.63;4957246;29;1375;-81
2021/07/07 00:05:16;;;;;;;;;;;;;;;-148.22;100.00;58358.63;4973453;28;1301;-81
2021/07/07 00:07:41;;;;;;;;;;;;;;;-148.22;100.00;58358.63;4957029;29;1383;-81
2021/07/07 00:10:08;;;;;;;;;;;;;;;-148.22;100.00;58358.63;4973409;28;1985;-81
2021/07/07 00:12:42;;;;;;;;;;;;;;;-148.22;100.00;58358.63;4957326;29;1171;-81
2021/07/07 00:15:11;;;;;;;;;;;;;;;-148.22;100.00;58358.63;4958373;29;839;-81
2021/07/07 00:17:36;;;;;;;;;;;;;;;-148.22;100.00;58358.63;4959105;28;886;-81
2021/07/07 00:20:03;;;;;;;;;;;;;;;-148.22;100.00;58358.63;4992681;28;1147;-81
2021/07/07 00:22:36;;;;;;;;;;;;;;;-148.22;100.00;58358.63;4977567;28;909;-81
2021/07/07 00:25:09;;;;;;;;;;;;;;;-148.22;100.00;58358.63;4977668;28;851;-81
2021/07/07 00:27:45;;;;;;;;;;;;;;;-148.22;100.00;58358.63;4961720;28;954;-81
2021/07/07 00:30:11;;;;;;;;;;;;;;;-148.22;100.00;58358.63;4958037;29;1871;-81
2021/07/07 00:32:42;;;;;;;;;;;;;;;-148.22;100.00;58358.63;4956865;29;1211;-81
2021/07/07 00:35:09;;;;;;;;;;;;;;;-148.22;100.00;58358.63;4972992;28;1290;-82
2021/07/07 00:37:44;;;;;;;;;;;;;;;-148.22;100.00;58358.63;4973073;28;1328;-81
2021/07/07 00:40:10;;;;;;;;;;;;;;;-148.22;100.00;58358.63;4972725;28;1201;-82
2021/07/07 00:42:50;;;;;;;;;;;;;;;-148.22;100.00;58358.63;4956684;29;1251;-81
2021/07/07 00:45:16;;;;;;;;;;;;;;;-148.22;100.00;58358.63;4957898;29;1129;-81
2021/07/07 00:47:49;;;;;;;;;;;;;;;-148.22;100.00;58358.63;4956632;29;1234;-81
2021/07/07 00:50:16;;;;;;;;;;;;;;;-148.22;100.00;58358.63;4957099;28;1887;-81
2021/07/07 00:52:41;;;;;;;;;;;;;;;-148.22;100.00;58358.63;4976098;28;1161;-81
2021/07/07 00:55:08;;;;;;;;;;;;;;;-148.22;100.00;58358.63;4990040;28;1180;-81
2021/07/07 00:57:36;;;;;;;;;;;;;;;-148.22;100.00;58358.63;4975832;28;1234;-82
2021/07/07 01:00:12;;;;;;;;;;;;;;;-148.22;100.00;58358.63;4991857;28;1203;-81
2021/07/07 01:02:38;;;;;;;;;;;;;;;-148.22;100.00;58358.63;4976918;28;832;-81
2021/07/07 01:05:15;;;;;;;;;;;;;;;-148.22;100.00;58358.63;4976901;28;927;-81
2021/07/07 01:07:41;;;;;;;;;;;;;;;-148.22;100.00;58358.63;4991224;28;1378;-80
2021/07/07 01:10:08;;;;;;;;;;;;;;;-148.22;100.00;58358.63;4976659;28;1903;-81
2021/07/07 01:12:36;;;;;;;;;;;;;;;-148.22;100.00;58358.63;4975655;28;1184;-81
2021/07/07 01:15:05;;;;;;;;;;;;;;;-148.22;100.00;58358.63;4974988;28;1009;-81
2021/07/07 01:17:41;;;;;;;;;;;;;;;-148.22;100.00;58358.63;4989645;28;1436;-81
2021/07/07 01:20:08;;;;;;;;;;;;;;;-148.22;100.00;58358.63;4976881;28;1017;-81
2021/07/07 01:22:33;;;;;;;;;;;;;;;-148.22;100.00;58358.63;4991700;28;1294;-81
2021/07/07 01:24:59;;;;;;;;;;;;;;;-148.22;100.00;58358.63;4991745;28;1273;-81
2021/07/07 01:27:36;;;;;;;;;;;;;;;-148.22;100.00;58358.63;4991665;28;1180;-81
2021/07/07 01:30:05;;;;;;;;;;;;;;;-148.22;100.00;58358.63;4989735;28;1964;-81
2021/07/07 01:32:31;;;;;;;;;;;;;;;-148.22;100.00;58358.63;4989532;28;1202;-81
2021/07/07 01:35:03;;;;;;;;;;;;;;;-148.22;100.00;58358.63;4991653;28;1351;-81
2021/07/07 01:37:46;;;;;;;;;;;;;;;-148.22;100.00;58358.63;4991547;28;1196;-80
2021/07/07 01:40:27;;;;;;;;;;;;;;;-148.22;100.00;58358.63;4986859;28;1410;-81
2021/07/07 01:42:54;;;;;;;;;;;;;;;-148.22;100.00;58358.63;4976706;28;1103;-81
2021/07/07 01:45:31;;;;;;;;;;;;;;;-148.22;100.00;58358.63;4976664;28;756;-80
2021/07/07 01:47:57;;;;;;;;;;;;;;;-148.22;100.00;58358.63;4976648;28;831;-81
2021/07/07 01:50:24;;;;;;;;;;;;;;;-148.22;100.00;58358.63;4991301;28;1945;-81
2021/07/07 01:52:57;;;;;;;;;;;;;;;-148.22;100.00;58358.63;4975327;28;1192;-81
2021/07/07 01:55:44;;;;;;;;;;;;;;;-148.22;100.00;58358.63;4991478;28;1236;-80
2021/07/07 01:58:23;;;;;;;;;;;;;;;-148.22;100.00;58358.63;4991485;28;1217;-80
2021/07/07 02:00:49;;;;;;;;;;;;;;;-148.22;100.00;58358.63;4991380;28;1328;-81
2021/07/07 02:03:15;;;;;;;;;;;;;;;-148.22;100.00;58358.63;4976371;28;843;-81
2021/07/07 02:05:40;;;;;;;;;;;;;;;-148.22;100.00;58358.63;4977406;28;1097;-80
2021/07/07 02:08:07;;;;;;;;;;;;;;;-148.22;100.00;58358.63;4978302;28;1910;-81
2021/07/07 02:10:33;;;;;;;;;;;;;;;-148.22;100.00;58358.63;4978416;28;1190;-81
2021/07/07 02:12:59;;;;;;;;;;;;;;;-148.22;100.00;58358.63;4995977;28;986;-81
2021/07/07 02:15:27;;;;;;;;;;;;;;;-148.22;100.00;58358.63;4996037;28;882;-82
2021/07/07 02:17:56;;;;;;;;;;;;;;;-148.22;100.00;58358.63;4996108;28;804;-81
2021/07/07 02:20:28;;;;;;;;;;;;;;;-148.22;100.00;58358.63;4998059;28;1280;-81
2021/07/07 02:23:20;;;;;;;;;;;;;;;-148.22;100.00;58358.63;4981766;28;1166;-81
2021/07/07 02:25:54;;;;;;;;;;;;;;;-148.22;100.00;58358.63;4981723;28;1200;-80
2021/07/07 02:28:29;;;;;;;;;;;;;;;-148.22;100.00;58358.63;4999444;28;1947;-81
2021/07/07 02:30:55;;;;;;;;;;;;;;;-148.22;100.00;58358.63;4999200;28;887;-81
2021/07/07 02:33:29;;;;;;;;;;;;;;;-148.22;100.00;58358.63;4997863;28;1181;-80
2021/07/07 02:36:24;;;;;;;;;;;;;;;-148.22;100.00;58358.63;4999075;28;867;-81
2021/07/07 02:38:50;;;;;;;;;;;;;;;-148.22;100.00;58358.63;4919678;29;1171;-81
2021/07/07 02:41:17;;;;;;;;;;;;;;;-148.22;100.00;58358.63;4904004;29;1235;-81
2021/07/07 02:43:42;;;;;;;;;;;;;;;-148.22;100.00;58358.63;4919864;29;1356;-81
2021/07/07 02:46:10;;;;;;;;;;;;;;;-148.22;100.00;58358.63;4904192;29;1195;-81
2021/07/07 02:48:36;;;;;;;;;;;;;;;-148.22;100.00;58358.63;4885321;29;1867;-81
2021/07/07 02:51:02;;;;;;;;;;;;;;;-148.22;100.00;58358.63;4885309;29;1255;-81
2021/07/07 02:53:28;;;;;;;;;;;;;;;-148.22;100.00;58358.63;4885113;29;1207;-81
2021/07/07 02:55:56;;;;;;;;;;;;;;;-148.22;100.00;58358.63;4885165;29;1260;-81
2021/07/07 02:58:35;;;;;;;;;;;;;;;-148.22;100.00;58358.63;4885077;29;1228;-81
2021/07/07 03:01:02;;;;;;;;;;;;;;;-148.22;100.00;58358.63;4885062;29;1144;-81
2021/07/07 03:03:28;;;;;;;;;;;;;;;-148.22;100.00;58358.63;4900560;29;938;-81
2021/07/07 03:05:56;;;;;;;;;;;;;;;-148.22;100.00;58358.63;4882567;29;1199;-81
2021/07/07 03:08:22;;;;;;;;;;;;;;;-148.22;100.00;58358.63;4899985;29;1915;-81
2021/07/07 03:10:49;;;;;;;;;;;;;;;-148.22;100.00;58358.63;4884818;29;1176;-80
2021/07/07 03:13:16;;;;;;;;;;;;;;;-148.22;100.00;58358.63;4884889;29;1175;-81
2021/07/07 03:15:52;;;;;;;;;;;;;;;-148.22;100.00;58358.63;4936191;29;1370;-81
2021/07/07 03:18:31;;;;;;;;;;;;;;;-148.22;100.00;58358.63;4974213;28;1150;-81
2021/07/07 03:20:57;;;;;;;;;;;;;;;-148.22;100.00;58358.63;4959551;28;879;-81
2021/07/07 03:23:25;;;;;;;;;;;;;;;-148.22;100.00;58358.63;4959328;28;998;-81
2021/07/07 03:25:58;;;;;;;;;;;;;;;-148.22;100.00;58358.63;4958088;29;1185;-81
2021/07/07 03:28:30;;;;;;;;;;;;;;;-148.22;100.00;58358.63;4974475;28;1899;-82
2021/07/07 03:31:22;;;;;;;;;;;;;;;-148.22;100.00;58358.63;4957881;28;1347;-81
2021/07/07 03:33:48;;;;;;;;;;;;;;;-148.22;100.00;58358.63;4903309;29;1284;-81
2021/07/07 03:36:18;;;;;;;;;;;;;;;-148.22;100.00;58358.63;4902539;29;1278;-81
2021/07/07 03:38:44;;;;;;;;;;;;;;;-148.22;100.00;58358.63;4918129;29;1099;-81
2021/07/07 03:41:10;;;;;;;;;;;;;;;-148.22;100.00;58358.63;4919021;29;868;-81
2021/07/07 03:43:36;;;;;;;;;;;;;;;-148.22;100.00;58358.63;4918918;29;982;-80
2021/07/07 03:46:03;;;;;;;;;;;;;;;-148.22;100.00;58358.63;4902981;29;1184;-81
2021/07/07 03:48:43;;;;;;;;;;;;;;;-148.22;100.00;58358.63;4902876;29;1876;-81
2021/07/07 03:51:10;;;;;;;;;;;;;;;-148.22;100.00;58358.63;4902864;29;1072;-81
2021/07/07 03:53:36;;;;;;;;;;;;;;;-148.22;100.00;58358.63;4902904;29;1230;-80
2021/07/07 03:56:02;;;;;;;;;;;;;;;-148.22;100.00;58358.63;4902808;29;1138;-80
2021/07/07 03:58:28;;;;;;;;;;;;;;;-148.22;100.00;58358.63;4902284;29;1342;-80
2021/07/07 04:00:54;;;;;;;;;;;;;;;-148.22;100.00;58358.63;4918349;29;1359;-81
2021/07/07 04:03:20;;;;;;;;;;;;;;;-148.22;100.00;58358.63;4917589;29;986;-82
2021/07/07 04:05:45;;;;;;;;;;;;;;;-148.22;100.00;58358.63;4918412;29;772;-81
2021/07/07 04:08:10;;;;;;;;;;;;;;;-148.22;100.00;58358.63;4920236;29;1899;-81
2021/07/07 04:10:46;;;;;;;;;;;;;;;-148.22;100.00;58358.63;4938672;29;1198;-81
2021/07/07 04:13:13;;;;;;;;;;;;;;;-148.22;100.00;58358.63;4957216;29;1203;-80
2021/07/07 04:15:48;;;;;;;;;;;;;;;-148.22;100.00;58358.63;4958829;29;709;-81
2021/07/07 04:18:26;;;;;;;;;;;;;;;-148.22;100.00;58358.63;4957092;29;1415;-81
2021/07/07 04:20:58;;;;;;;;;;;;;;;-148.22;100.00;58358.63;4956419;29;1234;-81
2021/07/07 04:23:34;;;;;;;;;;;;;;;-148.22;100.00;58358.63;4946611;29;1151;-81
2021/07/07 04:26:11;;;;;;;;;;;;;;;-148.22;100.00;58358.63;4937711;29;1308;-81
2021/07/07 04:28:48;;;;;;;;;;;;;;;-148.22;100.00;58358.63;4938300;29;1961;-81
2021/07/07 04:31:14;;;;;;;;;;;;;;;-148.22;100.00;58358.63;4945885;29;946;-81
2021/07/07 04:33:49;;;;;;;;;;;;;;;-148.22;100.00;58358.63;4957310;29;852;-80
2021/07/07 04:36:22;;;;;;;;;;;;;;;-148.22;100.00;58358.63;4956771;29;1137;-81
2021/07/07 04:38:48;;;;;;;;;;;;;;;-148.22;100.00;58358.63;4958280;29;1096;-81
2021/07/07 04:41:16;;;;;;;;;;;;;;;-148.22;100.00;58358.63;4957580;28;990;-81
2021/07/07 04:43:43;;;;;;;;;;;;;;;-148.22;100.00;58358.63;4958010;29;805;-81
2021/07/07 04:46:19;;;;;;;;;;;;;;;-148.22;100.00;58358.63;4958019;29;1037;-81
2021/07/07 04:48:45;;;;;;;;;;;;;;;-148.22;100.00;58358.63;4956578;29;1890;-80
2021/07/07 04:51:10;;;;;;;;;;;;;;;-148.22;100.00;58358.63;4957945;28;1053;-81
2021/07/07 04:53:36;;;;;;;;;;;;;;;-148.22;100.00;58358.63;4957898;29;918;-81
2021/07/07 04:56:09;;;;;;;;;;;;;;;-148.22;100.00;58358.63;4957808;29;777;-81
2021/07/07 04:58:35;;;;;;;;;;;;;;;-148.22;100.00;58358.63;4957749;29;789;-80
2021/07/07 05:01:13;;;;;;;;;;;;;;;-148.22;100.00;58358.63;4955028;29;1065;-80
2021/07/07 05:03:38;;;;;;;;;;;;;;;-148.22;100.00;58358.63;4956406;29;1141;-80
2021/07/07 05:06:03;;;;;;;;;;;;;;;-148.22;100.00;58358.63;4958660;28;1245;-81
2021/07/07 05:08:28;;;;;;;;;;;;;;;-148.22;100.00;58358.63;4959503;28;1972;-81
2021/07/07 05:11:02;;;;;;;;;;;;;;;-148.22;100.00;58358.63;4976867;28;863;-81
2021/07/07 05:14:01;;;;;;;;;;;;;;;-148.22;100.00;58358.63;4959552;28;1431;-81
2021/07/07 05:16:27;;;;;;;;;;;;;;;-148.22;100.00;58358.63;4917429;29;1305;-81
2021/07/07 05:18:54;;;;;;;;;;;;;;;-148.22;100.00;58358.63;4917567;29;927;-81
2021/07/07 05:21:19;;;;;;;;;;;;;;;-148.22;100.00;58358.63;4917493;29;967;-81
2021/07/07 05:23:45;;;;;;;;;;;;;;;-148.22;100.00;58358.63;4901539;29;1339;-81
2021/07/07 05:26:13;;;;;;;;;;;;;;;-148.22;100.00;58358.63;4901385;29;1316;-81
2021/07/07 05:28:40;;;;;;;;;;;;;;;-148.22;100.00;58358.63;4917237;29;1890;-81
2021/07/07 05:31:14;;;;;;;;;;;;;;;-148.22;100.00;58358.63;4901534;29;1325;-81
2021/07/07 05:33:41;;;;;;;;;;;;;;;-148.22;100.00;58358.63;4901556;29;1222;-81
2021/07/07 05:36:24;;;;;;;;;;;;;;;-148.22;100.00;58358.63;4910735;29;1359;-81
2021/07/07 05:38:51;;;;;;;;;;;;;;;-148.22;100.00;58358.63;4900547;29;1261;-81
2021/07/07 05:41:17;;;;;;;;;;;;;;;-148.22;100.00;58358.63;4901793;29;1348;-81
2021/07/07 05:44:12;;;;;;;;;;;;;;;-148.22;100.00;58358.63;4901331;29;1353;-81
2021/07/07 05:46:38;;;;;;;;;;;;;;;-148.22;100.00;58358.63;4879511;29;1023;-81
2021/07/07 05:49:04;;;;;;;;;;;;;;;-148.22;100.00;58358.63;4863948;29;1891;-81
2021/07/07 05:51:30;;;;;;;;;;;;;;;-148.22;100.00;58358.63;4874854;29;1175;-82
2021/07/07 05:54:04;;;;;;;;;;;;;;;-148.22;100.00;58358.63;4919069;29;828;-80
2021/07/07 05:56:32;;;;;;;;;;;;;;;-148.22;100.00;58358.63;4921032;29;1407;-81
2021/07/07 05:59:07;;;;;;;;;;;;;;;-148.22;100.00;58358.63;4904825;29;1182;-81
2021/07/07 06:01:57;;;;;;;;;;;;;;;-148.22;100.00;58358.63;4905012;29;1343;-86
2021/07/07 06:04:42;;;;;;;;;;;;;;;-148.22;100.00;58358.63;4920984;29;1210;-85
2021/07/07 06:07:08;;;;;;;;;;;;;;;-148.22;100.00;58358.63;4920729;29;1206;-85
2021/07/07 06:12:46;;;;;;;;;;;;;;;-148.22;100.00;58358.63;4920411;29;668;-85
2021/07/07 06:18:14;;;;;;;;;;;;;;;-148.22;100.00;58358.63;4920622;29;607;-86
2021/07/07 06:23:43;;;;;;;;;;;;;;;-148.22;100.00;58358.63;4966704;28;937;-85
2021/07/07 06:26:16;;;;;;;;;;;;;;;-148.22;100.00;58358.63;4980093;28;823;-86
2021/07/07 06:29:11;;;;;;;;;;;;;;;-148.22;100.00;58358.63;4962647;28;1960;-86
2021/07/07 06:34:39;;;;;;;;;;;;;;;-148.22;100.00;58358.63;4998000;28;831;-86
2021/07/07 06:37:40;;;;;;;;;;;;;;;-148.22;100.00;58358.63;4981572;28;1253;-86
2021/07/07 06:43:10;;;;;;;;;;;;;;;-148.22;100.00;58358.63;4979549;28;638;-85
2021/07/07 06:46:08;;;;;;;;;;;;;;;-148.22;100.00;58358.63;4979776;28;1095;-86
2021/07/07 06:48:48;;;;;;;;;;;;;;;-148.22;100.00;58358.63;4919674;29;1894;-86
2021/07/07 06:51:42;;;;;;;;;;;;;;;-148.22;100.00;58358.63;4920121;29;1059;-85
2021/07/07 06:54:46;;;;;;;;;;;;;;;-148.22;100.00;58358.63;4904045;29;1425;-86
2021/07/07 06:57:34;;;;;;;;;;;;;;;-148.22;100.00;58358.63;4904135;29;1333;-87
2021/07/07 07:00:25;;;;;;;;;;;;;;;-148.22;100.00;58358.63;4903440;29;1178;-86
2021/07/07 07:05:53;;;;;;;;;;;;;;;-148.22;100.00;58358.63;4919815;29;1120;-86
2021/07/07 07:08:18;;;;;;;;;;;;;;;-148.22;100.00;58358.63;4903448;29;1919;-86
2021/07/07 07:10:53;;;;;;;;;;;;;;;-148.22;100.00;58358.63;4919422;29;1434;-86
2021/07/07 07:13:27;;;;;;;;;;;;;;;-148.22;100.00;58358.63;4919516;29;1548;-86
2021/07/07 07:15:55;;;;;;;;;;;;;;;-148.22;100.00;58358.63;4903877;29;1209;-87
2021/07/07 07:18:45;;;;;;;;;;;;;;;-148.22;100.00;58358.63;4903578;29;1286;-85
2021/07/07 07:21:10;;;;;;;;;;;;;;;-148.22;100.00;58358.63;4903222;29;1207;-85
2021/07/07 07:23:55;;;;;;;;;;;;;;;-148.22;100.00;58358.63;4902871;28;1213;-87
2021/07/07 07:26:34;;;;;;;;;;;;;;;-148.22;100.00;58358.63;4980721;28;1276;-87
2021/07/07 07:32:09;;;;;;;;;;;;;;;-148.22;100.00;58358.63;4998121;28;595;-87
2021/07/07 07:34:45;;;;;;;;;;;;;;;-148.22;100.00;58358.63;4998148;28;1040;-83
2021/07/07 07:37:19;;;;;;;;;;;;;;;-148.22;100.00;58358.63;4978778;28;1521;-83
2021/07/07 07:39:50;;;;;;;;;;;;;;;-148.22;100.00;58358.63;4978203;28;1578;-84
2021/07/07 07:42:32;;;;;;;;;;;;;;;-148.22;100.00;58358.63;4968054;28;1562;-85
2021/07/07 07:45:06;;;;;;;;;;;;;;;-148.22;100.00;58358.63;4977457;28;1467;-85
2021/07/07 07:50:46;;;;;;;;;;;;;;;-148.22;100.00;58358.63;4978152;28;1895;-85
2021/07/07 07:53:31;;;;;;;;;;;;;;;-148.22;100.00;58358.63;4960737;28;1389;-87
2021/07/07 07:56:04;;;;;;;;;;;;;;;-148.22;100.00;58358.63;4962772;28;1224;-84
2021/07/07 07:58:30;;;;;;;;;;;;;;;-148.22;100.00;58358.63;4977968;28;1452;-83
2021/07/07 08:01:03;;;;;;;;;;;;;;;-148.22;100.00;58358.63;4976700;28;1585;-84
2021/07/07 08:03:43;;;;;;;;;;;;;;;-148.22;100.00;58358.63;4964417;28;1996;-85
2021/07/07 08:06:09;;;;;;;;;;;;;;;-148.22;100.00;58358.63;4986338;28;1537;-82
2021/07/07 08:08:34;;;;;;;;;;;;;;;-148.22;100.00;58358.63;4950713;28;1918;-83
2021/07/07 08:11:00;;;;;;;;;;;;;;;-148.22;100.00;58358.63;4961032;28;1292;-84
2021/07/07 08:13:26;;;;;;;;;;;;;;;-148.22;100.00;58358.63;4977883;28;852;-83
2021/07/07 08:16:04;;;;;;;;;;;;;;;-148.22;100.00;58358.63;4974371;28;1592;-84
2021/07/07 08:18:40;;;;;;;;;;;;;;;-148.22;100.00;58358.63;4984032;28;1260;-84
2021/07/07 08:21:05;;;;;;;;;;;;;;;-148.22;100.00;58358.63;4973693;28;1008;-84
2021/07/07 08:23:40;;;;;;;;;;;;;;;-148.22;100.00;58358.63;4960038;28;1510;-83
2021/07/07 08:26:05;;;;;;;;;;;;;;;-148.22;100.00;58358.63;4992878;28;1278;-84
2021/07/07 08:28:32;;;;;;;;;;;;;;;-148.22;100.00;58358.63;4966164;28;2293;-84
2021/07/07 08:30:58;;;;;;;;;;;;;;;-148.22;100.00;58358.63;4986252;28;931;-85
2021/07/07 08:33:24;;;;;;;;;;;;;;;-148.22;100.00;58358.63;4966647;28;1407;-86
2021/07/07 08:35:49;;;;;;;;;;;;;;;-148.22;100.00;58358.63;4980232;28;1466;-87
2021/07/07 08:38:23;;;;;;;;;;;;;;;-148.22;100.00;58358.63;4967472;28;1184;-85
2021/07/07 08:41:02;;;;;;;;;;;;;;;-148.22;100.00;58358.63;4959762;28;1415;-85
2021/07/07 08:43:30;;;;;;;;;;;;;;;-148.22;100.00;58358.63;4958931;28;1239;-81
2021/07/07 08:45:59;;;;;;;;;;;;;;;-148.22;100.00;58358.63;4978372;28;1439;-82
2021/07/07 08:48:25;;;;;;;;;;;;;;;-148.22;100.00;58358.63;4976850;28;1962;-81
2021/07/07 08:50:53;;;;;;;;;;;;;;;-148.22;100.00;58358.63;4990044;28;957;-80
2021/07/07 08:53:21;;;;;;;;;;;;;;;-148.22;100.00;58358.63;4994763;28;976;-79
2021/07/07 08:56:03;;;;;;;;;;;;;;;-148.22;100.00;58358.63;4982443;28;1380;-80
2021/07/07 08:58:35;;;;;;;;;;;;;;;-148.22;100.00;58358.63;4959409;28;1216;-80
2021/07/07 09:01:06;;;;;;;;;;;;;;;-148.22;100.00;58358.63;4975507;28;1383;-83
2021/07/07 09:03:48;;;;;;;;;;;;;;;-148.22;100.00;58358.63;4949296;29;1615;-82
2021/07/07 09:06:24;;;;;;;;;;;;;;;-148.22;100.00;58358.63;4955484;28;1167;-83
2021/07/07 09:08:49;;;;;;;;;;;;;;;-148.22;100.00;58358.63;4989053;28;1911;-82
2021/07/07 09:11:22;;;;;;;;;;;;;;;-148.22;100.00;58358.63;4952472;28;1602;-83
2021/07/07 09:13:49;;;;;;;;;;;;;;;-148.22;100.00;58358.63;4956424;29;1325;-83
2021/07/07 09:16:43;;;;;;;;;;;;;;;-148.22;100.00;58358.63;4956352;29;1185;-83
2021/07/07 09:19:16;;;;;;;;;;;;;;;-148.22;100.00;58358.63;4960635;28;1854;-82
2021/07/07 09:21:53;;;;;;;;;;;;;;;-148.22;100.00;58358.63;4959617;28;1207;-83
2021/07/07 09:24:38;;;;;;;;;;;;;;;-148.22;100.00;58358.63;4959357;28;1205;-85
2021/07/07 09:27:18;;;;;;;;;;;;;;;-148.22;100.00;58358.63;4976328;28;1462;-84
2021/07/07 09:32:52;;;;;;;;;;;;;;;-148.22;100.00;58358.63;4980815;28;602;-84
2021/07/07 09:35:36;;;;;;;;;;;;;;;-148.22;100.00;58358.63;4980589;28;949;-83
2021/07/07 09:38:14;;;;;;;;;;;;;;;-148.22;100.00;58358.63;4979502;28;1304;-84
2021/07/07 09:40:42;;;;;;;;;;;;;;;-148.22;100.00;58358.63;4979412;28;1410;-83
2021/07/07 09:43:38;;;;;;;;;;;;;;;-148.22;100.00;58358.63;4969125;28;1549;-87
2021/07/07 09:46:06;;;;;;;;;;;;;;;-148.22;100.00;58358.63;4979228;28;1263;-84
2021/07/07 09:48:46;;;;;;;;;;;;;;;-148.22;100.00;58358.63;4964305;28;1894;-85
2021/07/07 09:51:15;;;;;;;;;;;;;;;-148.22;100.00;58358.63;4979239;28;1195;-84
2021/07/07 09:53:55;;;;;;;;;;;;;;;-148.22;100.00;58358.63;4979934;28;1352;-84
2021/07/07 09:56:21;;;;;;;;;;;;;;;-148.22;100.00;58358.63;4963250;28;1233;-86
2021/07/07 09:58:56;;;;;;;;;;;;;;;-148.22;100.00;58358.63;4963107;28;1291;-86
2021/07/07 10:01:30;;;;;;;;;;;;;;;-148.22;100.00;58358.63;4963118;28;1250;-86
2021/07/07 10:04:23;;;;;;;;;;;;;;;-148.22;100.00;58358.63;4963011;28;1250;-86
2021/07/07 10:06:48;;;;;;;;;;;;;;;-148.22;100.00;58358.63;4990408;28;1259;-85
2021/07/07 10:09:13;;;;;;;;;;;;;;;-148.22;100.00;58358.63;4989237;28;1978;-85
2021/07/07 10:11:49;;;;;;;;;;;;;;;-148.22;100.00;58358.63;4963098;28;1321;-86
2021/07/07 10:14:22;;;;;;;;;;;;;;;-148.22;100.00;58358.63;4962914;28;1309;-85
2021/07/07 10:16:56;;;;;;;;;;;;;;;-148.22;100.00;58358.63;4978807;28;1294;-85
2021/07/07 10:22:43;;;;;;;;;;;;;;;-148.22;100.00;58358.63;4964223;28;1102;-86
2021/07/07 10:25:11;;;;;;;;;;;;;;;-148.22;100.00;58358.63;4953029;29;1346;-86
2021/07/07 10:27:50;;;;;;;;;;;;;;;-148.22;100.00;58358.63;4942711;29;1316;-85
2021/07/07 10:30:40;;;;;;;;;;;;;;;-148.22;100.00;58358.63;4942471;28;1950;-86
2021/07/07 10:33:10;;;;;;;;;;;;;;;-148.22;100.00;58358.63;4961676;28;1312;-87
2021/07/07 10:35:39;;;;;;;;;;;;;;;-148.22;100.00;58358.63;4961807;28;1371;-86
2021/07/07 10:38:30;;;;;;;;;;;;;;;-148.22;100.00;58358.63;4960578;28;1183;-85
2021/07/07 10:41:06;;;;;;;;;;;;;;;-148.22;100.00;58358.63;4975649;28;1031;-85
2021/07/07 10:44:11;;;;;;;;;;;;;;;-148.22;100.00;58358.63;4961599;28;1199;-86
2021/07/07 10:46:50;;;;;;;;;;;;;;;-148.22;100.00;58358.63;4961542;28;1173;-85
2021/07/07 10:49:22;;;;;;;;;;;;;;;-148.22;100.00;58358.63;4961363;28;1957;-85
2021/07/07 10:52:10;;;;;;;;;;;;;;;-148.22;100.00;58358.63;4959888;28;1159;-86
2021/07/07 10:54:36;;;;;;;;;;;;;;;-148.22;100.00;58358.63;4961393;28;1271;-85
2021/07/07 10:57:20;;;;;;;;;;;;;;;-148.22;100.00;58358.63;4961328;28;1306;-85
2021/07/07 10:59:45;;;;;;;;;;;;;;;-148.22;100.00;58358.63;4973331;28;1271;-84
2021/07/07 11:02:29;;;;;;;;;;;;;;;-148.22;100.00;58358.63;4997573;28;1280;-84
2021/07/07 11:05:08;;;;;;;;;;;;;;;-148.22;100.00;58358.63;4997325;28;1319;-85
2021/07/07 11:07:36;;;;;;;;;;;;;;;-148.22;100.00;58358.63;4992819;28;1248;-85
2021/07/07 11:10:17;;;;;;;;;;;;;;;-148.22;100.00;58358.63;4961853;28;1974;-86
2021/07/07 11:12:42;;;;;;;;;;;;;;;-148.22;100.00;58358.63;4940629;29;756;-86
2021/07/07 11:15:48;;;;;;;;;;;;;;;-148.22;100.00;58358.63;4940448;28;1289;-85
2021/07/07 11:18:18;;;;;;;;;;;;;;;-148.22;100.00;58358.63;4958064;29;1247;-84
2021/07/07 11:20:48;;;;;;;;;;;;;;;-148.22;100.00;58358.63;4959558;28;796;-82
2021/07/07 11:23:15;;;;;;;;;;;;;;;-148.22;100.00;58358.63;4959294;28;1245;-85
2021/07/07 11:26:07;;;;;;;;;;;;;;;-148.22;100.00;58358.63;4954882;29;1287;-85
2021/07/07 11:28:52;;;;;;;;;;;;;;;-148.22;100.00;58358.63;4900299;29;1984;-85
2021/07/07 11:31:20;;;;;;;;;;;;;;;-148.22;100.00;58358.63;4896932;29;1377;-83
2021/07/07 11:33:55;;;;;;;;;;;;;;;-148.22;100.00;58358.63;4894054;29;1810;-83
2021/07/07 11:36:23;;;;;;;;;;;;;;;-148.22;100.00;58358.63;4881931;29;1708;-85
2021/07/07 11:38:48;;;;;;;;;;;;;;;-148.22;100.00;58358.63;4879061;29;1708;-83
2021/07/07 11:41:23;;;;;;;;;;;;;;;-148.22;100.00;58358.63;4884244;29;1791;-83
2021/07/07 11:43:50;;;;;;;;;;;;;;;-148.22;100.00;58358.63;4884401;29;1692;-84
2021/07/07 11:46:18;;;;;;;;;;;;;;;-148.22;100.00;58358.63;4918694;29;1155;-83
2021/07/07 11:48:46;;;;;;;;;;;;;;;-148.22;100.00;58358.63;4894293;29;1960;-84
2021/07/07 11:51:21;;;;;;;;;;;;;;;-148.22;100.00;58358.63;4884214;29;899;-85
2021/07/07 11:53:59;;;;;;;;;;;;;;;-148.22;100.00;58358.63;4884246;29;1699;-86
2021/07/07 11:59:51;;;;;;;;;;;;;;;-148.22;100.00;58358.63;4893559;29;1251;-87
2021/07/07 12:02:17;;;;;;;;;;;;;;;-148.22;100.00;58358.63;4883421;29;1778;-82
2021/07/07 12:04:43;;;;;;;;;;;;;;;-148.22;100.00;58358.63;4900679;29;1656;-84
2021/07/07 12:07:10;;;;;;;;;;;;;;;-148.22;100.00;58358.63;4899628;29;1211;-83
2021/07/07 12:09:36;;;;;;;;;;;;;;;-148.22;100.00;58358.63;4932746;29;1902;-83
2021/07/07 12:12:10;;;;;;;;;;;;;;;-148.22;100.00;58358.63;4913984;29;1671;-83
2021/07/07 12:14:37;;;;;;;;;;;;;;;-148.22;100.00;58358.63;4918332;29;1199;-82
2021/07/07 12:17:17;;;;;;;;;;;;;;;-148.22;100.00;58358.63;4918537;29;1242;-83
2021/07/07 12:19:43;;;;;;;;;;;;;;;-148.22;100.00;58358.63;4918590;29;1195;-84
2021/07/07 12:22:20;;;;;;;;;;;;;;;-148.22;100.00;58358.63;4918232;29;1264;-84
2021/07/07 12:24:47;;;;;;;;;;;;;;;-148.22;100.00;58358.63;4926949;29;1465;-83
2021/07/07 12:27:15;;;;;;;;;;;;;;;-148.22;100.00;58358.63;4937439;29;934;-83
2021/07/07 12:29:54;;;;;;;;;;;;;;;-148.22;100.00;58358.63;4923144;29;1953;-83
2021/07/07 12:32:23;;;;;;;;;;;;;;;-148.22;100.00;58358.63;4918129;29;962;-85
2021/07/07 12:35:24;;;;;;;;;;;;;;;-148.22;100.00;58358.63;4937439;29;1416;-84
2021/07/07 12:37:59;;;;;;;;;;;;;;;-148.22;100.00;58358.63;4917365;29;1406;-82
2021/07/07 12:40:36;;;;;;;;;;;;;;;-148.22;100.00;58358.63;4910271;29;1520;-83
2021/07/07 12:43:16;;;;;;;;;;;;;;;-148.22;100.00;58358.63;4902191;29;1178;-83
2021/07/07 12:45:49;;;;;;;;;;;;;;;-148.22;100.00;58358.63;4902019;29;1710;-82
2021/07/07 12:48:16;;;;;;;;;;;;;;;-148.22;100.00;58358.63;4901849;29;1719;-83
2021/07/07 12:50:55;;;;;;;;;;;;;;;-148.22;100.00;58358.63;4915378;29;1883;-82
2021/07/07 12:53:33;;;;;;;;;;;;;;;-148.22;100.00;58358.63;4899063;29;1134;-82
2021/07/07 12:56:10;;;;;;;;;;;;;;;-148.22;100.00;58358.63;4905944;29;1229;-82
2021/07/07 12:58:36;;;;;;;;;;;;;;;-148.22;100.00;58358.63;4915628;29;1314;-81
2021/07/07 13:01:21;;;;;;;;;;;;;;;-148.22;100.00;58358.63;4916187;29;949;-83
2021/07/07 13:04:07;;;;;;;;;;;;;;;-148.22;100.00;58358.63;4903533;29;876;-82
2021/07/07 13:06:33;;;;;;;;;;;;;;;-148.22;100.00;58358.63;4916400;29;1197;-82
2021/07/07 13:09:02;;;;;;;;;;;;;;;-148.22;100.00;58358.63;4915338;29;1907;-82
2021/07/07 13:11:27;;;;;;;;;;;;;;;-148.22;100.00;58358.63;4917473;29;1162;-82
2021/07/07 13:13:57;;;;;;;;;;;;;;;-148.22;100.00;58358.63;4947939;28;1420;-82
2021/07/07 13:16:29;;;;;;;;;;;;;;;-148.22;100.00;58358.63;4956464;29;1169;-82
2021/07/07 13:19:13;;;;;;;;;;;;;;;-148.22;100.00;58358.63;4940622;29;1583;-84
2021/07/07 13:21:48;;;;;;;;;;;;;;;-148.22;100.00;58358.63;4937188;29;1166;-82
2021/07/07 13:24:26;;;;;;;;;;;;;;;-148.22;100.00;58358.63;4938343;29;781;-83
2021/07/07 13:26:53;;;;;;;;;;;;;;;-148.22;100.00;58358.63;4952873;29;1332;-82
2021/07/07 13:29:38;;;;;;;;;;;;;;;-148.22;100.00;58358.63;4938239;29;1894;-83
2021/07/07 13:32:06;;;;;;;;;;;;;;;-148.22;100.00;58358.63;4965333;28;1299;-83